createdAt,value
2023-05-23T00:01:19.823Z,17.35
2023-05-23T00:03:48.653Z,17.34
2023-05-23T00:06:17.420Z,17.32
2023-05-23T00:08:45.491Z,17.29
2023-05-23T00:11:14.787Z,17.29
2023-05-23T00:13:42.942Z,17.27
2023-05-23T00:16:11.057Z,17.28
2023-05-23T00:18:39.758Z,17.27
2023-05-23T00:21:07.754Z,17.24
2023-05-23T00:23:35.868Z,17.24
2023-05-23T00:26:04.120Z,17.26
2023-05-23T00:28:32.225Z,17.25
2023-05-23T00:31:00.279Z,17.22
2023-05-23T00:33:28.334Z,17.20
2023-05-23T00:35:56.402Z,17.18
2023-05-23T00:38:24.390Z,17.13
2023-05-23T00:40:52.467Z,17.10
2023-05-23T00:43:22.665Z,17.03
2023-05-23T00:45:50.911Z,17.02
2023-05-23T00:48:19.575Z,17.00
2023-05-23T00:50:47.978Z,17.02
2023-05-23T00:53:16.074Z,16.97
2023-05-23T00:55:44.960Z,16.95
2023-05-23T00:58:13.066Z,16.93
2023-05-23T01:00:41.203Z,16.88
2023-05-23T01:03:09.351Z,16.84
2023-05-23T01:05:37.450Z,16.82
2023-05-23T01:08:05.674Z,16.78
2023-05-23T01:10:33.721Z,16.75
2023-05-23T01:13:32.359Z,16.70
2023-05-23T01:16:40.693Z,16.68
2023-05-23T01:19:30.755Z,16.65
2023-05-23T01:21:58.851Z,16.63
2023-05-23T01:25:02.781Z,16.61
2023-05-23T01:27:51.573Z,16.58
2023-05-23T01:30:21.118Z,16.57
2023-05-23T01:32:50.298Z,16.52
2023-05-23T01:35:22.120Z,16.49
2023-05-23T01:37:50.095Z,16.47
2023-05-23T01:40:18.076Z,16.44
2023-05-23T01:42:46.237Z,16.43
2023-05-23T01:45:14.293Z,16.43
2023-05-23T01:47:42.727Z,16.43
2023-05-23T01:50:11.378Z,16.45
2023-05-23T01:52:39.310Z,16.46
2023-05-23T01:55:11.082Z,16.45
2023-05-23T01:57:39.521Z,16.43
2023-05-23T02:00:09.620Z,16.43
2023-05-23T02:02:37.843Z,16.41
2023-05-23T02:05:06.396Z,16.38
2023-05-23T02:07:34.535Z,16.33
2023-05-23T02:10:02.555Z,16.31
2023-05-23T02:12:30.577Z,16.30
2023-05-23T02:14:58.732Z,16.27
2023-05-23T02:17:26.960Z,16.26
2023-05-23T02:19:55.288Z,16.24
2023-05-23T02:22:26.976Z,16.23
2023-05-23T02:24:54.977Z,16.19
2023-05-23T02:27:23.030Z,16.17
2023-05-23T02:29:51.111Z,16.13
2023-05-23T02:32:19.189Z,16.12
2023-05-23T02:34:48.160Z,16.13
2023-05-23T02:37:16.217Z,16.12
2023-05-23T02:39:47.326Z,16.14
2023-05-23T02:42:15.398Z,16.14
2023-05-23T02:44:43.520Z,16.16
2023-05-23T02:47:12.215Z,16.14
2023-05-23T02:49:40.344Z,16.14
2023-05-23T02:52:08.363Z,16.13
2023-05-23T02:54:36.371Z,16.12
2023-05-23T02:57:04.388Z,16.10
2023-05-23T02:59:32.776Z,16.08
2023-05-23T05:18:24.847Z,16.23
2023-05-23T05:20:52.836Z,16.26
2023-05-23T05:23:20.852Z,16.29
2023-05-23T05:25:49.297Z,16.30
2023-05-23T05:28:17.308Z,16.35
2023-05-23T05:30:47.630Z,16.38
2023-05-23T05:33:15.801Z,16.42
2023-05-23T05:35:43.802Z,16.45
2023-05-23T05:38:12.494Z,16.52
2023-05-23T05:40:40.759Z,16.55
2023-05-23T05:43:08.965Z,16.60
2023-05-23T05:45:37.369Z,16.67
2023-05-23T05:48:05.938Z,16.74
2023-05-23T05:50:33.935Z,16.82
2023-05-23T05:53:02.125Z,16.92
2023-05-23T05:55:30.324Z,17.01
2023-05-23T05:57:58.469Z,17.09
2023-05-23T06:00:26.955Z,17.16
2023-05-23T06:02:58.664Z,17.20
2023-05-23T06:05:27.334Z,17.25
2023-05-23T06:07:55.422Z,17.30
2023-05-23T06:10:23.548Z,17.37
2023-05-23T06:12:51.758Z,17.41
2023-05-23T06:15:20.433Z,17.49
2023-05-23T06:17:49.195Z,17.55
2023-05-23T06:20:17.379Z,17.63
2023-05-23T06:22:45.786Z,17.70
2023-05-23T06:25:13.945Z,17.78
2023-05-23T06:27:42.012Z,17.81
2023-05-23T06:30:11.102Z,17.90
2023-05-23T06:32:39.530Z,18.06
2023-05-23T06:35:08.385Z,18.19
2023-05-23T06:37:36.736Z,18.28
2023-05-23T06:40:05.042Z,18.40
2023-05-23T06:42:33.279Z,18.49
2023-05-23T06:45:01.492Z,18.59
2023-05-23T06:47:30.241Z,18.64
2023-05-23T06:49:58.485Z,18.66
2023-05-23T06:52:26.645Z,18.71
2023-05-23T06:54:54.819Z,18.71
2023-05-23T06:57:25.830Z,18.69
2023-05-23T06:59:54.697Z,18.69
2023-05-23T07:02:22.916Z,18.69
2023-05-23T07:04:51.096Z,18.66
2023-05-23T07:07:19.747Z,18.73
2023-05-23T07:09:48.543Z,18.85
2023-05-23T07:12:16.929Z,18.95
2023-05-23T07:14:45.165Z,19.00
2023-05-23T07:17:13.288Z,19.05
2023-05-23T07:19:44.411Z,19.11
2023-05-23T07:22:12.491Z,19.07
2023-05-23T07:24:40.664Z,19.08
2023-05-23T07:27:08.741Z,19.02
2023-05-23T07:29:36.970Z,18.92
2023-05-23T07:32:05.276Z,18.85
2023-05-23T07:34:33.604Z,18.78
2023-05-23T07:37:01.828Z,18.76
2023-05-23T07:39:29.987Z,18.77
2023-05-23T07:41:58.044Z,18.76
2023-05-23T07:44:26.111Z,18.79
2023-05-23T07:46:54.364Z,18.81
2023-05-23T07:49:22.677Z,18.87
2023-05-23T07:51:50.850Z,18.92
2023-05-23T07:54:18.865Z,18.94
2023-05-23T07:56:47.570Z,18.95
2023-05-23T07:59:15.803Z,18.94
2023-05-23T08:01:43.993Z,18.95
2023-05-23T08:04:12.190Z,18.94
2023-05-23T08:06:52.088Z,18.96
2023-05-23T08:09:28.607Z,18.96
2023-05-23T08:11:56.824Z,18.96
2023-05-23T08:14:29.454Z,18.94
2023-05-23T08:17:06.651Z,18.90
2023-05-23T08:19:34.848Z,18.92
2023-05-23T08:22:03.264Z,18.96
2023-05-23T08:24:32.123Z,19.01
2023-05-23T08:27:00.215Z,19.02
2023-05-23T08:29:29.697Z,19.09
2023-05-23T08:31:58.068Z,19.14
2023-05-23T08:34:26.161Z,19.20
2023-05-23T08:36:54.456Z,19.23
2023-05-23T08:39:22.600Z,19.28
2023-05-23T08:41:51.088Z,19.28
2023-05-23T08:44:19.149Z,19.35
2023-05-23T08:46:48.006Z,19.37
2023-05-23T08:49:16.602Z,19.45
2023-05-23T08:51:45.103Z,19.48
2023-05-23T08:54:14.650Z,19.49
2023-05-23T08:56:42.910Z,19.50
2023-05-23T08:59:11.816Z,19.55
2023-05-23T09:01:41.255Z,19.66
2023-05-23T09:04:09.505Z,19.71
2023-05-23T09:06:38.266Z,19.71
2023-05-23T09:09:06.572Z,19.68
2023-05-23T09:11:36.433Z,19.68
2023-05-23T09:14:06.480Z,19.66
2023-05-23T09:16:36.251Z,19.63
2023-05-23T09:19:14.791Z,19.66
2023-05-23T09:21:49.441Z,19.71
2023-05-23T09:24:17.549Z,19.80
2023-05-23T09:26:49.029Z,19.87
2023-05-23T09:29:21.041Z,19.95
2023-05-23T09:31:49.780Z,20.04
2023-05-23T09:34:18.001Z,20.16
2023-05-23T09:36:46.592Z,20.23
2023-05-23T09:39:14.742Z,20.31
2023-05-23T09:41:42.932Z,20.34
2023-05-23T09:44:11.140Z,20.38
2023-05-23T09:46:42.271Z,20.44
2023-05-23T09:49:18.200Z,20.48
2023-05-23T09:51:46.649Z,20.59
2023-05-23T09:54:14.745Z,20.71
2023-05-23T09:56:45.075Z,20.87
2023-05-23T09:59:13.465Z,20.92
2023-05-23T10:01:42.806Z,21.08
2023-05-23T10:04:10.996Z,21.10
2023-05-23T10:06:51.612Z,21.20
2023-05-23T10:09:20.194Z,21.27
2023-05-23T10:12:50.141Z,21.51
2023-05-23T10:15:18.768Z,21.64
2023-05-23T10:18:04.102Z,21.61
2023-05-23T10:20:35.424Z,21.63
2023-05-23T10:23:03.989Z,21.91
2023-05-23T10:25:32.193Z,22.22
2023-05-23T10:28:03.162Z,22.46
2023-05-23T10:30:32.358Z,22.35
2023-05-23T10:33:00.498Z,22.51
2023-05-23T10:35:37.695Z,22.71
2023-05-23T10:38:42.920Z,22.75
2023-05-23T10:41:18.198Z,22.82
2023-05-23T10:43:53.482Z,22.94
2023-05-23T10:46:23.189Z,22.92
2023-05-23T10:48:55.520Z,23.15
2023-05-23T10:51:24.065Z,23.29
2023-05-23T10:53:55.465Z,23.49
2023-05-23T10:56:27.330Z,23.72
2023-05-23T10:58:56.350Z,23.84
2023-05-23T11:01:25.545Z,24.09
2023-05-23T11:03:55.922Z,24.24
2023-05-23T11:06:35.205Z,24.25
2023-05-23T11:09:06.964Z,24.40
2023-05-23T11:12:01.298Z,24.62
2023-05-23T11:14:39.304Z,24.51
2023-05-23T11:17:13.815Z,24.51
2023-05-23T11:19:42.199Z,24.74
2023-05-23T11:22:10.652Z,24.62
2023-05-23T11:24:54.895Z,24.11
2023-05-23T11:27:30.867Z,23.65
2023-05-23T11:30:14.963Z,23.36
2023-05-23T11:32:43.692Z,23.35
2023-05-23T11:35:12.625Z,23.24
2023-05-23T11:37:41.254Z,23.06
2023-05-23T11:40:34.355Z,22.88
2023-05-23T11:43:07.349Z,22.99
2023-05-23T11:45:36.532Z,23.50
2023-05-23T11:48:14.752Z,23.79
2023-05-23T11:50:53.683Z,24.16
2023-05-23T11:53:23.110Z,24.43
2023-05-23T11:56:01.463Z,24.75
2023-05-23T11:58:36.776Z,24.95
2023-05-23T12:01:16.730Z,24.95
2023-05-23T12:03:49.362Z,25.11
2023-05-23T12:06:19.901Z,25.20
2023-05-23T12:08:51.061Z,25.29
2023-05-23T12:11:19.289Z,25.29
2023-05-23T12:13:47.436Z,24.91
2023-05-23T12:16:18.672Z,24.52
2023-05-23T12:18:48.304Z,24.23
2023-05-23T12:21:18.146Z,24.03
2023-05-23T12:23:46.557Z,23.97
2023-05-23T12:26:14.676Z,24.22
2023-05-23T12:28:44.891Z,24.01
2023-05-23T12:31:15.293Z,23.83
2023-05-23T12:33:47.349Z,23.60
2023-05-23T12:36:16.650Z,23.37
2023-05-23T12:38:46.880Z,23.24
2023-05-23T12:41:21.041Z,23.20
2023-05-23T12:43:53.549Z,23.10
2023-05-23T12:46:22.895Z,23.02
2023-05-23T12:48:51.126Z,22.93
2023-05-23T12:51:19.288Z,22.85
2023-05-23T12:53:47.348Z,22.75
2023-05-23T12:56:15.592Z,22.68
2023-05-23T12:58:43.894Z,22.57
2023-05-23T13:01:12.784Z,22.47
2023-05-23T13:03:40.949Z,22.42
2023-05-23T13:06:09.377Z,22.38
2023-05-23T13:08:37.437Z,22.28
2023-05-23T13:11:05.779Z,22.17
2023-05-23T13:13:37.070Z,22.07
2023-05-23T13:16:05.255Z,21.91
2023-05-23T13:18:33.680Z,21.79
2023-05-23T13:21:01.813Z,21.66
2023-05-23T13:23:30.086Z,21.55
2023-05-23T13:25:59.531Z,21.34
2023-05-23T13:28:27.612Z,21.14
2023-05-23T13:30:55.863Z,20.99
2023-05-23T13:33:24.900Z,20.83
2023-05-23T13:35:53.999Z,20.69
2023-05-23T13:38:23.401Z,20.59
2023-05-23T13:40:54.300Z,20.48
2023-05-23T13:43:22.438Z,20.37
2023-05-23T13:45:50.541Z,20.29
2023-05-23T13:48:18.583Z,20.26
2023-05-23T13:50:46.961Z,20.13
2023-05-23T13:53:18.295Z,20.04
2023-05-23T13:55:46.548Z,19.99
2023-05-23T13:58:14.775Z,19.93
2023-05-23T14:00:48.901Z,19.82
2023-05-23T14:03:17.295Z,19.67
2023-05-23T14:05:45.616Z,19.62
2023-05-23T14:08:15.315Z,19.58
2023-05-23T14:10:43.637Z,19.54
2023-05-23T14:13:12.374Z,19.52
2023-05-23T14:15:40.543Z,19.52
2023-05-23T14:18:09.025Z,19.54
2023-05-23T14:20:37.468Z,19.57
2023-05-23T14:23:05.638Z,19.60
2023-05-23T14:25:33.795Z,19.65
2023-05-23T14:28:01.937Z,19.71
2023-05-23T14:30:30.108Z,19.72
2023-05-23T14:32:59.326Z,19.73
2023-05-23T14:35:27.737Z,19.73
2023-05-23T14:37:55.745Z,19.77
2023-05-23T14:40:23.943Z,19.84
2023-05-23T14:42:52.020Z,19.84
2023-05-23T14:45:20.140Z,19.81
2023-05-23T14:47:48.340Z,19.81
2023-05-23T14:50:17.334Z,19.84
2023-05-23T14:52:45.748Z,19.81
2023-05-23T14:55:14.016Z,19.85
2023-05-23T14:57:42.196Z,19.93
2023-05-23T15:00:11.697Z,19.97
2023-05-23T15:02:40.062Z,19.98
2023-05-23T15:05:09.167Z,19.97
2023-05-23T15:07:37.499Z,20.01
2023-05-23T15:10:06.789Z,20.04
2023-05-23T15:12:34.887Z,20.04
2023-05-23T15:15:05.806Z,20.03
2023-05-23T15:17:34.518Z,20.05
2023-05-23T15:20:04.435Z,20.04
2023-05-23T15:22:39.224Z,20.03
2023-05-23T15:25:09.126Z,20.04
2023-05-23T15:27:37.706Z,20.07
2023-05-23T15:30:06.302Z,20.05
2023-05-23T15:32:34.446Z,20.06
2023-05-23T15:35:02.590Z,20.08
2023-05-23T15:37:30.798Z,20.10
2023-05-23T15:39:58.921Z,20.08
2023-05-23T15:42:26.976Z,20.06
2023-05-23T15:44:55.291Z,20.08
2023-05-23T15:47:23.362Z,20.08
2023-05-23T15:49:51.617Z,20.09
2023-05-23T15:52:19.724Z,20.11
2023-05-23T15:54:47.768Z,20.16
2023-05-23T15:57:19.055Z,20.20
2023-05-23T15:59:47.297Z,20.24
2023-05-23T16:02:17.151Z,20.29
2023-05-23T16:04:45.242Z,20.26
2023-05-23T16:07:13.568Z,20.34
2023-05-23T16:09:41.760Z,20.36
2023-05-23T16:12:10.076Z,20.38
2023-05-23T16:14:38.166Z,20.38
2023-05-23T16:17:08.312Z,20.39
2023-05-23T16:19:36.616Z,20.43
2023-05-23T16:22:04.783Z,20.43
2023-05-23T16:24:32.905Z,20.44
2023-05-23T16:27:05.833Z,20.44
2023-05-23T16:29:34.061Z,20.43
2023-05-23T16:32:02.293Z,20.37
2023-05-23T16:34:30.444Z,20.36
2023-05-23T16:36:59.318Z,20.37
2023-05-23T16:39:27.497Z,20.39
2023-05-23T16:41:56.210Z,20.37
2023-05-23T16:44:25.116Z,20.36
2023-05-23T16:46:53.705Z,20.34
2023-05-23T16:49:21.728Z,20.32
2023-05-23T16:51:49.948Z,20.31
2023-05-23T16:54:18.173Z,20.31
2023-05-23T16:56:46.259Z,20.27
2023-05-23T16:59:14.468Z,20.24
2023-05-23T17:01:42.903Z,20.20
2023-05-23T17:04:11.112Z,20.16
2023-05-23T17:06:39.426Z,20.16
2023-05-23T17:09:07.743Z,20.13
2023-05-23T17:11:35.782Z,20.11
2023-05-23T17:14:04.164Z,20.06
2023-05-23T17:16:34.609Z,20.04
2023-05-23T17:19:02.714Z,20.03
2023-05-23T17:21:30.849Z,19.98
2023-05-23T17:23:58.975Z,19.95
2023-05-23T17:26:28.599Z,19.92
2023-05-23T17:28:56.652Z,19.89
2023-05-23T17:31:24.757Z,19.85
2023-05-23T17:33:52.862Z,19.78
2023-05-23T17:36:20.983Z,19.78
2023-05-23T17:38:49.021Z,19.73
2023-05-23T17:41:17.450Z,19.70
2023-05-23T17:43:45.568Z,19.67
2023-05-23T17:46:13.727Z,19.59
2023-05-23T17:48:47.640Z,19.54
2023-05-23T17:51:16.402Z,19.46
2023-05-23T17:53:44.845Z,19.44
2023-05-23T17:56:12.950Z,19.35
2023-05-23T17:58:43.901Z,19.34
2023-05-23T18:01:15.861Z,19.26
2023-05-23T18:03:44.240Z,19.19
2023-05-23T18:06:12.445Z,19.15
2023-05-23T18:08:42.372Z,19.14
2023-05-23T18:11:10.408Z,19.12
2023-05-23T18:13:38.703Z,19.05
2023-05-23T18:16:06.875Z,19.02
2023-05-23T18:18:35.082Z,18.99
2023-05-23T18:21:03.289Z,18.93
2023-05-23T18:23:31.357Z,18.92
2023-05-23T18:25:59.457Z,18.92
2023-05-23T18:28:27.760Z,18.89
2023-05-23T18:30:55.881Z,18.86
2023-05-23T18:33:24.068Z,18.82
2023-05-23T18:35:52.813Z,18.79
2023-05-23T18:38:21.006Z,18.73
2023-05-23T18:40:49.090Z,18.68
2023-05-23T18:43:18.767Z,18.65
2023-05-23T18:45:46.981Z,18.65
2023-05-23T18:48:16.035Z,18.59
2023-05-23T18:50:44.441Z,18.55
2023-05-23T18:53:12.653Z,18.50
2023-05-23T18:55:40.751Z,18.47
2023-05-23T18:58:08.929Z,18.42
2023-05-23T19:00:37.131Z,18.35
2023-05-23T19:03:05.852Z,18.33
2023-05-23T19:05:34.022Z,18.31
2023-05-23T19:08:02.365Z,18.24
2023-05-23T19:10:30.797Z,18.19
2023-05-23T19:12:58.965Z,18.16
2023-05-23T19:15:27.052Z,18.14
2023-05-23T19:17:55.283Z,18.07
2023-05-23T19:20:23.506Z,18.02
2023-05-23T19:22:52.575Z,18.03
2023-05-23T19:25:22.185Z,18.00
2023-05-23T19:27:50.311Z,17.95
2023-05-23T19:30:18.679Z,17.88
2023-05-23T19:32:47.030Z,17.87
2023-05-23T19:35:17.044Z,17.84
2023-05-23T19:37:45.588Z,17.82
2023-05-23T19:40:14.777Z,17.79
2023-05-23T19:42:43.030Z,17.75
2023-05-23T19:45:11.885Z,17.77
2023-05-23T19:47:40.142Z,17.76
2023-05-23T19:50:10.554Z,17.74
2023-05-23T19:52:38.922Z,17.69
2023-05-23T19:55:08.098Z,17.69
2023-05-23T19:57:36.407Z,17.68
2023-05-23T20:00:06.612Z,17.68
2023-05-23T20:02:35.422Z,17.63
2023-05-23T20:05:03.853Z,17.61
2023-05-23T20:07:32.388Z,17.58
2023-05-23T20:10:00.628Z,17.62
2023-05-23T20:12:28.925Z,17.59
2023-05-23T20:14:57.304Z,17.61
2023-05-23T20:17:25.519Z,17.56
2023-05-23T20:19:53.925Z,17.57
2023-05-23T20:22:22.207Z,17.60
2023-05-23T20:24:50.522Z,17.59
2023-05-23T20:27:19.239Z,17.59
2023-05-23T20:29:47.694Z,17.55
2023-05-23T20:32:16.267Z,17.54
2023-05-23T20:34:44.688Z,17.54
2023-05-23T20:37:15.008Z,17.53
2023-05-23T20:39:43.341Z,17.50
2023-05-23T20:42:16.492Z,17.51
2023-05-23T20:44:44.932Z,17.48
2023-05-23T20:47:13.544Z,17.47
2023-05-23T20:49:41.950Z,17.43
2023-05-23T20:52:10.369Z,17.44
2023-05-23T20:54:39.217Z,17.43
2023-05-23T20:57:07.559Z,17.39
2023-05-23T20:59:35.984Z,17.33
2023-05-23T21:02:04.270Z,17.31
2023-05-23T21:04:32.565Z,17.32
2023-05-23T21:07:02.651Z,17.35
2023-05-23T21:09:31.157Z,17.34
2023-05-23T21:11:59.238Z,17.31
2023-05-23T21:14:27.475Z,17.30
2023-05-23T21:16:55.724Z,17.32
2023-05-23T21:19:23.994Z,17.30
2023-05-23T21:21:54.503Z,17.30
2023-05-23T21:24:23.682Z,17.30
2023-05-23T21:26:53.090Z,17.27
2023-05-23T21:29:21.220Z,17.25
2023-05-23T21:31:49.793Z,17.23
2023-05-23T21:34:23.768Z,17.23
2023-05-23T21:36:53.537Z,17.23
2023-05-23T21:39:21.906Z,17.21
2023-05-23T21:41:50.101Z,17.19
2023-05-23T21:44:19.018Z,17.11
2023-05-23T21:46:47.476Z,17.07
2023-05-23T21:49:15.615Z,17.02
2023-05-23T21:51:43.798Z,16.96
2023-05-23T21:54:12.658Z,16.98
2023-05-23T21:56:40.803Z,16.97
2023-05-23T21:59:09.368Z,16.98
2023-05-23T22:01:37.967Z,16.94
2023-05-23T22:04:06.815Z,16.92
2023-05-23T22:06:35.090Z,16.89
2023-05-23T22:09:03.778Z,16.85
2023-05-23T22:11:35.176Z,16.86
2023-05-23T22:14:03.804Z,16.85
2023-05-23T22:16:35.090Z,16.82
2023-05-23T22:19:03.495Z,16.77
2023-05-23T22:21:31.907Z,16.74
2023-05-23T22:24:00.231Z,16.73
2023-05-23T22:26:28.740Z,16.69
2023-05-23T22:28:57.232Z,16.65
2023-05-23T22:31:25.347Z,16.64
2023-05-23T22:33:53.575Z,16.58
2023-05-23T22:36:23.334Z,16.57
2023-05-23T22:38:51.554Z,16.54
2023-05-23T22:41:19.806Z,16.48
2023-05-23T22:43:48.469Z,16.48
2023-05-23T22:46:16.613Z,16.45
2023-05-23T22:48:44.961Z,16.42
2023-05-23T22:51:15.729Z,16.43
2023-05-23T22:53:44.711Z,16.43
2023-05-23T22:56:12.911Z,16.39
2023-05-23T22:58:41.044Z,16.37
2023-05-23T23:01:09.241Z,16.35
2023-05-23T23:03:37.418Z,16.36
2023-05-23T23:06:07.661Z,16.34
2023-05-23T23:08:35.808Z,16.33
2023-05-23T23:11:03.980Z,16.29
2023-05-23T23:13:32.180Z,16.27
2023-05-23T23:16:00.372Z,16.25
2023-05-23T23:18:28.547Z,16.23
2023-05-23T23:20:56.820Z,16.26
2023-05-23T23:23:24.956Z,16.24
2023-05-23T23:25:53.569Z,16.25
2023-05-23T23:28:21.653Z,16.19
2023-05-23T23:30:49.740Z,16.14
2023-05-23T23:33:17.978Z,16.14
2023-05-23T23:35:49.803Z,16.17
2023-05-23T23:38:19.339Z,16.12
2023-05-23T23:40:47.456Z,16.09
2023-05-23T23:43:15.578Z,16.04
2023-05-23T23:45:43.855Z,16.04
2023-05-23T23:48:12.021Z,16.02
2023-05-23T23:50:40.271Z,15.98
2023-05-23T23:53:09.131Z,15.95
2023-05-23T23:55:37.258Z,15.92
2023-05-23T23:58:05.358Z,15.95
